Home   Weather   France   Nantes   Past weeks
Flag for France

Past Weather in Nantes, Loire-Atlantique, France — Yesterday and Last 2 Weeks

Currently: 45 °F. Overcast. (Weather station: Nantes Airport, France). See more current weather

Past Weather in Nantes — Graph

°F

Nantes Temperature Yesterday

Maximum temperature yesterday: 50 °F (at 3:00 pm)
Minimum temperature yesterday: 39 °F (at 12:00 am)
Average temperature yesterday: 44 °F

High & Low Weather Summary for the Past Weeks

 TemperatureHumidityPressure
High50 °F (Jan 30, 3:00 pm)100% (Jan 16, 9:30 pm)30.57 "Hg (Jan 16, 9:30 pm)
Low25 °F (Jan 22, 2:00 am)57% (Jan 21, 3:30 pm)29.03 "Hg (Jan 17, 3:30 pm)
Average38 °F85%30.19 "Hg
* Reported Jan 16 9:00 am — Jan 31 9:00 am, Nantes. Weather by CustomWeather, © 2023

Note: Actual official high and low records may vary slightly from our data, if they occured in-between our weather recording intervals... More about our weather records

Nantes Weather History for the Previous 24 Hours

Scroll right to see more
 ConditionsComfort  
Time TempWeatherWind HumidityBarometerVisibility
9:00 am
Tue, Jan 31
43 °FOvercast.2 mph100%30.48 "HgN/A
8:30 am43 °FOvercast.2 mph100%30.45 "HgN/A
8:00 am43 °FOvercast.2 mph100%30.45 "Hg4 mi
7:00 am43 °FOvercast.2 mph100%30.42 "HgN/A
6:30 am43 °FOvercast.No wind100%30.45 "HgN/A
6:00 am45 °FMostly cloudy.3 mph93%30.45 "HgN/A
5:30 am45 °FMostly cloudy.2 mph100%30.45 "Hg5 mi
5:00 am45 °FMostly cloudy.1 mph100%30.42 "Hg4 mi
4:30 am46 °FFog.3 mph93%30.42 "Hg3 mi
4:00 am46 °FFog.2 mph100%30.42 "Hg1 mi
3:30 am46 °FFog.No wind93%30.42 "Hg1 mi
3:00 am46 °FMostly cloudy.1 mph100%30.45 "Hg1 mi
2:30 am46 °FLow clouds.No wind93%30.45 "Hg1 mi
2:00 am46 °FFog.No wind100%30.45 "Hg1 mi
12:30 am46 °FFog.No wind100%30.45 "Hg1 mi
12:00 am46 °FFog.2 mph100%30.45 "Hg1 mi
11:00 pm
Mon, Jan 30
46 °FLow clouds.2 mph100%30.45 "Hg1 mi
10:30 pm46 °FFog.2 mph100%30.45 "Hg2 mi
10:00 pm46 °FMostly cloudy.No wind100%30.45 "Hg4 mi
9:30 pm46 °FLow clouds.2 mph100%30.42 "Hg4 mi
9:00 pm46 °FDrizzle. Fog.5 mph100%30.42 "Hg3 mi
8:30 pm46 °FMostly cloudy.6 mph100%30.42 "HgN/A
8:00 pm46 °FLow clouds.6 mph100%30.42 "Hg6 mi
7:00 pm46 °FLow clouds.7 mph100%30.42 "HgN/A
6:30 pm46 °FDrizzle. Mostly cloudy.6 mph100%30.42 "HgN/A
6:00 pm48 °FDrizzle. Fog.7 mph94%30.42 "Hg2 mi
5:00 pm48 °FDrizzle. Low clouds.8 mph94%30.39 "Hg4 mi
4:30 pm48 °FOvercast.8 mph87%30.39 "HgN/A
4:00 pm50 °FMostly cloudy.9 mph82%30.39 "HgN/A
3:30 pm50 °FMostly cloudy.9 mph82%30.39 "HgN/A
3:00 pm50 °FOvercast.9 mph82%30.39 "HgN/A
2:30 pm48 °FCloudy.9 mph82%30.39 "HgN/A
2:00 pm48 °FMostly cloudy.10 mph82%30.39 "HgN/A
1:00 pm48 °FOvercast.8 mph82%30.42 "HgN/A
12:30 pm46 °FOvercast.9 mph87%30.42 "HgN/A
12:00 pm46 °FPartly sunny.10 mph87%30.42 "HgN/A
11:30 am45 °FScattered clouds.14 mph87%30.42 "HgN/A
11:00 am43 °FScattered clouds.9 mph87%30.42 "HgN/A
Weather by CustomWeather, © 2023

See weather overview